Hlavní strana
METAR-TAF:

METAR-TAF

Letiště :

Letiště Gran Canaria

Gran Canaria, Španělsko

zeměpisná šířka: 27-56N, zeměpisná délka: 015-23W, výška: 23 m

Aktuální stav počasí

Zpráva byla vytvořena před 20 minutami, v 10:30 UTC
Severoseverovýchodní vítr 14 kt
Teplota 21°C
Vlhkost vzduchu 64%
Tlak 1027 hPa
Viditelnost 10 km a více
Skoro jasno ve výšce 2500 ft

METAR: GCLP 101030Z 02014KT 9999 FEW025 21/14 Q1027 NOSIG

Čas: 10:50 (10:50 UTC)

Předpověď počasí

Zpráva byla vytvořena před 2 hodinami a 50 minutami, v 08:00 UTC
Předpověď platná od 10 v 09 UTC do 11 v 09 UTC
Severoseverovýchodní vítr 16 kt
Viditelnost 10 km a více
Skoro jasno ve výšce 2500 ft

TAF: GCLP 100800Z 1009/1109 02016KT 9999 FEW025 TX22/1014Z TN18/1106Z

Stav a předpovědi počasí z více než 4 000 letišť (zprávy METAR a TAF).

Červené a žluté tečky na mapě představují dostupné meteorologické stanice.

Když kurzor umístíte na tečku, zobrazí se název stanice.

Pak kliknutím zobrazíte stav a předpověď počasí.

Chcete-li změnit mapu, kliknutím na zelené tlačítko se znaménkem +mapu přiblížíte, kliknutím na zelené tlačítko se znaménkem – mapu oddálíte a kliknutím na zelené šipky přejdete na sousední mapy.


METAR-TAF: